KJST/JST METAR and TAF weather

Enter ICAO airport designator
Station Type Date Time Source
KJST METAR 2020/09/20 01:54 UTC NOAA

KJST 200154Z AUTO 07003KT 10SM CLR 09/M03 A3035 RMK AO2 SLP287 T00891033


Station Type Date Time Source
KJST Decoded METAR 2020/09/20 01:54 UTC NOAA

JOHNSTOWN-CAMBRIA CO AIRPORT , PA, United States (KJST) 40-19N 078-50W 694M
Sep 19, 2020 - 09:54 PM EDT / 2020.09.20 0154 UTC
Wind: from the ENE (070 degrees) at 3 MPH (3 KT):0
Visibility: 10 mile(s):0
Sky conditions: clear
Temperature: 48.0 F (8.9 C)
Dew Point: 26.1 F (-3.3 C)
Relative Humidity: 42%
Pressure (altimeter): 30.35 in. Hg (1027 hPa)
ob: KJST 200154Z AUTO 07003KT 10SM CLR 09/M03 A3035 RMK AO2 SLP287 T00891033
cycle: 2

Station Type Date Time Source
KJST TAF 2020/09/19 18:51 UTC NOAA

TAF KJST 191748Z 1918/2018 08004KT P6SM SKC
FM200000 VRB03KT P6SM SKC
FM201300 09005KT P6SM SKC

Example: see airport list